sensor_id;sensor_type;location;lat;lon;timestamp;P1;durP1;ratioP1;P2;durP2;ratioP2
20336;SDS011;10326;53.660;10.200;2023-06-14T00:01:46;3.28;;;2.55;;
20336;SDS011;10326;53.660;10.200;2023-06-14T00:04:15;5.35;;;2.60;;
20336;SDS011;10326;53.660;10.200;2023-06-14T00:06:49;5.00;;;2.65;;
20336;SDS011;10326;53.660;10.200;2023-06-14T00:09:16;5.18;;;2.40;;
20336;SDS011;10326;53.660;10.200;2023-06-14T00:11:44;4.15;;;2.55;;
20336;SDS011;10326;53.660;10.200;2023-06-14T00:14:11;4.30;;;2.50;;
20336;SDS011;10326;53.660;10.200;2023-06-14T00:16:39;3.90;;;2.60;;
20336;SDS011;10326;53.660;10.200;2023-06-14T00:19:07;4.38;;;2.63;;
20336;SDS011;10326;53.660;10.200;2023-06-14T00:21:37;4.28;;;2.47;;
20336;SDS011;10326;53.660;10.200;2023-06-14T00:24:05;3.45;;;2.15;;
20336;SDS011;10326;53.660;10.200;2023-06-14T00:26:33;3.15;;;2.10;;
20336;SDS011;10326;53.660;10.200;2023-06-14T00:29:00;3.10;;;2.20;;
20336;SDS011;10326;53.660;10.200;2023-06-14T00:31:28;3.17;;;2.40;;
20336;SDS011;10326;53.660;10.200;2023-06-14T00:33:55;2.40;;;2.20;;
20336;SDS011;10326;53.660;10.200;2023-06-14T00:36:22;3.10;;;2.30;;
20336;SDS011;10326;53.660;10.200;2023-06-14T00:38:51;3.80;;;2.40;;
20336;SDS011;10326;53.660;10.200;2023-06-14T00:41:18;3.58;;;2.80;;
20336;SDS011;10326;53.660;10.200;2023-06-14T00:43:46;3.33;;;2.20;;
20336;SDS011;10326;53.660;10.200;2023-06-14T00:46:14;2.58;;;2.28;;
20336;SDS011;10326;53.660;10.200;2023-06-14T00:48:41;3.85;;;2.65;;
20336;SDS011;10326;53.660;10.200;2023-06-14T00:51:09;4.57;;;2.30;;
20336;SDS011;10326;53.660;10.200;2023-06-14T00:53:37;3.00;;;2.20;;
20336;SDS011;10326;53.660;10.200;2023-06-14T00:56:06;3.20;;;2.55;;
20336;SDS011;10326;53.660;10.200;2023-06-14T00:58:33;3.15;;;2.30;;
20336;SDS011;10326;53.660;10.200;2023-06-14T01:01:00;3.70;;;2.53;;
20336;SDS011;10326;53.660;10.200;2023-06-14T01:03:27;3.05;;;2.75;;
20336;SDS011;10326;53.660;10.200;2023-06-14T01:05:58;3.72;;;2.40;;
20336;SDS011;10326;53.660;10.200;2023-06-14T01:08:37;4.70;;;2.63;;
20336;SDS011;10326;53.660;10.200;2023-06-14T01:11:16;3.90;;;2.50;;
20336;SDS011;10326;53.660;10.200;2023-06-14T01:13:50;4.30;;;2.78;;
20336;SDS011;10326;53.660;10.200;2023-06-14T01:16:21;3.53;;;2.53;;
20336;SDS011;10326;53.660;10.200;2023-06-14T01:18:48;2.95;;;2.45;;
20336;SDS011;10326;53.660;10.200;2023-06-14T01:21:21;3.65;;;2.47;;
20336;SDS011;10326;53.660;10.200;2023-06-14T01:23:50;4.45;;;2.70;;
20336;SDS011;10326;53.660;10.200;2023-06-14T01:26:19;3.00;;;2.70;;
20336;SDS011;10326;53.660;10.200;2023-06-14T01:28:47;3.35;;;2.30;;
20336;SDS011;10326;53.660;10.200;2023-06-14T01:31:18;3.13;;;2.45;;
20336;SDS011;10326;53.660;10.200;2023-06-14T01:33:47;2.40;;;2.20;;
20336;SDS011;10326;53.660;10.200;2023-06-14T01:36:16;3.78;;;2.45;;
20336;SDS011;10326;53.660;10.200;2023-06-14T01:38:45;2.70;;;2.40;;
20336;SDS011;10326;53.660;10.200;2023-06-14T01:41:16;3.20;;;2.45;;
20336;SDS011;10326;53.660;10.200;2023-06-14T01:43:45;4.28;;;2.55;;
20336;SDS011;10326;53.660;10.200;2023-06-14T01:46:14;3.28;;;2.67;;
20336;SDS011;10326;53.660;10.200;2023-06-14T01:48:42;4.38;;;2.90;;
20336;SDS011;10326;53.660;10.200;2023-06-14T01:51:10;3.65;;;2.63;;
20336;SDS011;10326;53.660;10.200;2023-06-14T01:53:37;3.15;;;2.50;;
20336;SDS011;10326;53.660;10.200;2023-06-14T01:56:05;3.42;;;2.72;;
20336;SDS011;10326;53.660;10.200;2023-06-14T01:58:34;2.78;;;2.35;;
20336;SDS011;10326;53.660;10.200;2023-06-14T02:01:02;3.67;;;2.63;;
20336;SDS011;10326;53.660;10.200;2023-06-14T02:03:30;3.35;;;2.60;;
20336;SDS011;10326;53.660;10.200;2023-06-14T02:05:57;7.00;;;2.50;;
20336;SDS011;10326;53.660;10.200;2023-06-14T02:08:25;4.45;;;3.00;;
20336;SDS011;10326;53.660;10.200;2023-06-14T02:10:52;6.18;;;2.72;;
20336;SDS011;10326;53.660;10.200;2023-06-14T02:13:20;3.42;;;2.33;;
20336;SDS011;10326;53.660;10.200;2023-06-14T02:15:50;2.40;;;2.10;;
20336;SDS011;10326;53.660;10.200;2023-06-14T02:18:20;3.22;;;2.40;;
20336;SDS011;10326;53.660;10.200;2023-06-14T02:20:48;4.20;;;2.50;;
20336;SDS011;10326;53.660;10.200;2023-06-14T02:23:16;3.47;;;2.67;;
20336;SDS011;10326;53.660;10.200;2023-06-14T02:25:43;2.65;;;2.45;;
20336;SDS011;10326;53.660;10.200;2023-06-14T02:28:11;3.85;;;2.72;;
20336;SDS011;10326;53.660;10.200;2023-06-14T02:30:38;3.45;;;2.80;;
20336;SDS011;10326;53.660;10.200;2023-06-14T02:33:07;3.15;;;2.50;;
20336;SDS011;10326;53.660;10.200;2023-06-14T02:35:39;3.90;;;2.72;;
20336;SDS011;10326;53.660;10.200;2023-06-14T02:38:06;2.78;;;2.50;;
20336;SDS011;10326;53.660;10.200;2023-06-14T02:40:33;3.63;;;2.78;;
20336;SDS011;10326;53.660;10.200;2023-06-14T02:43:01;3.30;;;2.75;;
20336;SDS011;10326;53.660;10.200;2023-06-14T02:45:28;6.00;;;2.83;;
20336;SDS011;10326;53.660;10.200;2023-06-14T02:47:55;3.35;;;2.67;;
20336;SDS011;10326;53.660;10.200;2023-06-14T02:50:24;3.85;;;2.92;;
20336;SDS011;10326;53.660;10.200;2023-06-14T02:52:53;4.63;;;2.92;;
20336;SDS011;10326;53.660;10.200;2023-06-14T02:55:22;3.20;;;2.40;;
20336;SDS011;10326;53.660;10.200;2023-06-14T02:57:49;4.07;;;2.55;;
20336;SDS011;10326;53.660;10.200;2023-06-14T03:00:19;3.28;;;2.70;;
20336;SDS011;10326;53.660;10.200;2023-06-14T03:02:47;4.63;;;2.58;;
20336;SDS011;10326;53.660;10.200;2023-06-14T03:05:16;3.38;;;2.63;;
20336;SDS011;10326;53.660;10.200;2023-06-14T03:07:48;3.70;;;2.80;;
20336;SDS011;10326;53.660;10.200;2023-06-14T03:10:16;3.25;;;2.80;;
20336;SDS011;10326;53.660;10.200;2023-06-14T03:12:44;6.43;;;3.20;;
20336;SDS011;10326;53.660;10.200;2023-06-14T03:15:13;4.07;;;2.25;;
20336;SDS011;10326;53.660;10.200;2023-06-14T03:17:45;4.05;;;2.65;;
20336;SDS011;10326;53.660;10.200;2023-06-14T03:20:15;5.10;;;2.90;;
20336;SDS011;10326;53.660;10.200;2023-06-14T03:22:42;3.13;;;2.80;;
20336;SDS011;10326;53.660;10.200;2023-06-14T03:25:13;4.10;;;2.78;;
20336;SDS011;10326;53.660;10.200;2023-06-14T03:27:43;2.85;;;2.55;;
20336;SDS011;10326;53.660;10.200;2023-06-14T03:30:11;4.93;;;2.83;;
20336;SDS011;10326;53.660;10.200;2023-06-14T03:32:39;6.85;;;2.92;;
20336;SDS011;10326;53.660;10.200;2023-06-14T03:35:07;4.20;;;3.00;;
20336;SDS011;10326;53.660;10.200;2023-06-14T03:37:42;3.65;;;2.75;;
20336;SDS011;10326;53.660;10.200;2023-06-14T03:40:09;4.32;;;2.70;;
20336;SDS011;10326;53.660;10.200;2023-06-14T03:42:41;3.03;;;2.53;;
20336;SDS011;10326;53.660;10.200;2023-06-14T03:45:09;4.15;;;2.80;;
20336;SDS011;10326;53.660;10.200;2023-06-14T03:47:37;4.63;;;2.67;;
20336;SDS011;10326;53.660;10.200;2023-06-14T03:50:04;5.45;;;2.88;;
20336;SDS011;10326;53.660;10.200;2023-06-14T03:52:33;3.17;;;2.88;;
20336;SDS011;10326;53.660;10.200;2023-06-14T03:55:03;3.95;;;3.15;;
20336;SDS011;10326;53.660;10.200;2023-06-14T03:57:35;4.28;;;3.10;;
20336;SDS011;10326;53.660;10.200;2023-06-14T04:00:06;4.35;;;3.08;;
20336;SDS011;10326;53.660;10.200;2023-06-14T04:02:39;4.65;;;3.00;;
20336;SDS011;10326;53.660;10.200;2023-06-14T04:05:08;5.43;;;3.05;;
20336;SDS011;10326;53.660;10.200;2023-06-14T04:07:39;4.15;;;2.97;;
20336;SDS011;10326;53.660;10.200;2023-06-14T04:10:10;4.57;;;3.00;;
20336;SDS011;10326;53.660;10.200;2023-06-14T04:12:40;4.05;;;3.17;;
20336;SDS011;10326;53.660;10.200;2023-06-14T04:15:08;5.50;;;3.15;;
20336;SDS011;10326;53.660;10.200;2023-06-14T04:17:36;4.07;;;2.85;;
20336;SDS011;10326;53.660;10.200;2023-06-14T04:20:06;5.00;;;3.20;;
20336;SDS011;10326;53.660;10.200;2023-06-14T04:22:35;4.28;;;3.08;;
20336;SDS011;10326;53.660;10.200;2023-06-14T04:25:04;3.20;;;2.72;;
20336;SDS011;10326;53.660;10.200;2023-06-14T04:27:33;4.60;;;2.72;;
20336;SDS011;10326;53.660;10.200;2023-06-14T04:30:05;6.95;;;3.58;;
20336;SDS011;10326;53.660;10.200;2023-06-14T04:32:37;4.25;;;2.92;;
20336;SDS011;10326;53.660;10.200;2023-06-14T04:35:06;5.55;;;3.35;;
20336;SDS011;10326;53.660;10.200;2023-06-14T04:37:37;4.38;;;2.92;;
20336;SDS011;10326;53.660;10.200;2023-06-14T04:40:08;4.75;;;2.70;;
20336;SDS011;10326;53.660;10.200;2023-06-14T04:42:37;5.88;;;2.85;;
20336;SDS011;10326;53.660;10.200;2023-06-14T04:45:09;3.75;;;2.60;;
20336;SDS011;10326;53.660;10.200;2023-06-14T04:47:39;5.15;;;2.75;;
20336;SDS011;10326;53.660;10.200;2023-06-14T04:50:07;5.45;;;3.08;;
20336;SDS011;10326;53.660;10.200;2023-06-14T04:52:39;5.82;;;2.95;;
20336;SDS011;10326;53.660;10.200;2023-06-14T04:55:08;5.10;;;2.92;;
20336;SDS011;10326;53.660;10.200;2023-06-14T04:57:36;4.68;;;2.97;;
20336;SDS011;10326;53.660;10.200;2023-06-14T05:00:04;5.00;;;3.33;;
20336;SDS011;10326;53.660;10.200;2023-06-14T05:02:39;6.25;;;3.35;;
20336;SDS011;10326;53.660;10.200;2023-06-14T05:05:07;3.58;;;2.80;;
20336;SDS011;10326;53.660;10.200;2023-06-14T05:07:34;4.50;;;2.92;;
20336;SDS011;10326;53.660;10.200;2023-06-14T05:10:02;4.70;;;3.00;;
20336;SDS011;10326;53.660;10.200;2023-06-14T05:12:30;4.82;;;3.38;;
20336;SDS011;10326;53.660;10.200;2023-06-14T05:14:58;5.38;;;3.13;;
20336;SDS011;10326;53.660;10.200;2023-06-14T05:17:26;6.15;;;3.05;;
20336;SDS011;10326;53.660;10.200;2023-06-14T05:19:55;5.18;;;2.83;;
20336;SDS011;10326;53.660;10.200;2023-06-14T05:22:22;4.60;;;2.85;;
20336;SDS011;10326;53.660;10.200;2023-06-14T05:24:55;4.93;;;3.42;;
20336;SDS011;10326;53.660;10.200;2023-06-14T05:27:22;4.28;;;3.08;;
20336;SDS011;10326;53.660;10.200;2023-06-14T05:29:51;4.22;;;3.63;;
20336;SDS011;10326;53.660;10.200;2023-06-14T05:32:22;6.30;;;3.15;;
20336;SDS011;10326;53.660;10.200;2023-06-14T05:34:49;3.80;;;3.08;;
20336;SDS011;10326;53.660;10.200;2023-06-14T05:37:18;4.07;;;3.30;;
20336;SDS011;10326;53.660;10.200;2023-06-14T05:39:45;4.40;;;3.35;;
20336;SDS011;10326;53.660;10.200;2023-06-14T05:42:12;6.35;;;3.33;;
20336;SDS011;10326;53.660;10.200;2023-06-14T05:44:39;6.45;;;3.08;;
20336;SDS011;10326;53.660;10.200;2023-06-14T05:47:07;3.33;;;3.03;;
20336;SDS011;10326;53.660;10.200;2023-06-14T05:49:34;5.03;;;3.30;;
20336;SDS011;10326;53.660;10.200;2023-06-14T05:52:02;4.82;;;3.17;;
20336;SDS011;10326;53.660;10.200;2023-06-14T05:54:31;5.43;;;2.90;;
20336;SDS011;10326;53.660;10.200;2023-06-14T05:56:59;5.45;;;3.10;;
20336;SDS011;10326;53.660;10.200;2023-06-14T05:59:26;4.25;;;3.10;;
20336;SDS011;10326;53.660;10.200;2023-06-14T06:01:55;3.15;;;2.50;;
20336;SDS011;10326;53.660;10.200;2023-06-14T06:04:22;2.78;;;2.58;;
20336;SDS011;10326;53.660;10.200;2023-06-14T06:06:50;4.22;;;2.90;;
20336;SDS011;10326;53.660;10.200;2023-06-14T06:09:17;3.38;;;3.08;;
20336;SDS011;10326;53.660;10.200;2023-06-14T06:11:45;4.35;;;2.50;;
20336;SDS011;10326;53.660;10.200;2023-06-14T06:14:13;4.88;;;3.05;;
20336;SDS011;10326;53.660;10.200;2023-06-14T06:16:40;5.57;;;2.95;;
20336;SDS011;10326;53.660;10.200;2023-06-14T06:19:08;4.90;;;2.45;;
20336;SDS011;10326;53.660;10.200;2023-06-14T06:21:35;3.00;;;2.70;;
20336;SDS011;10326;53.660;10.200;2023-06-14T06:24:04;7.70;;;3.70;;
20336;SDS011;10326;53.660;10.200;2023-06-14T06:26:32;4.00;;;2.97;;
20336;SDS011;10326;53.660;10.200;2023-06-14T06:29:00;4.60;;;2.58;;
20336;SDS011;10326;53.660;10.200;2023-06-14T06:31:27;2.72;;;2.38;;
20336;SDS011;10326;53.660;10.200;2023-06-14T06:33:55;3.42;;;2.63;;
20336;SDS011;10326;53.660;10.200;2023-06-14T06:36:22;3.63;;;2.90;;
20336;SDS011;10326;53.660;10.200;2023-06-14T06:38:49;4.38;;;2.70;;
20336;SDS011;10326;53.660;10.200;2023-06-14T06:41:18;4.18;;;2.85;;
20336;SDS011;10326;53.660;10.200;2023-06-14T06:43:45;4.30;;;2.80;;
20336;SDS011;10326;53.660;10.200;2023-06-14T06:46:16;3.88;;;2.30;;
20336;SDS011;10326;53.660;10.200;2023-06-14T06:48:44;6.65;;;2.55;;
20336;SDS011;10326;53.660;10.200;2023-06-14T06:51:12;5.43;;;2.65;;
20336;SDS011;10326;53.660;10.200;2023-06-14T06:53:41;3.17;;;2.55;;
20336;SDS011;10326;53.660;10.200;2023-06-14T06:56:09;4.05;;;2.45;;
20336;SDS011;10326;53.660;10.200;2023-06-14T06:58:37;3.25;;;2.58;;
20336;SDS011;10326;53.660;10.200;2023-06-14T07:01:04;5.45;;;2.50;;
20336;SDS011;10326;53.660;10.200;2023-06-14T07:03:33;3.20;;;2.33;;
20336;SDS011;10326;53.660;10.200;2023-06-14T07:06:00;2.50;;;2.30;;
20336;SDS011;10326;53.660;10.200;2023-06-14T07:08:28;5.60;;;2.42;;
20336;SDS011;10326;53.660;10.200;2023-06-14T07:10:56;2.53;;;2.25;;
20336;SDS011;10326;53.660;10.200;2023-06-14T07:13:23;3.80;;;2.70;;
20336;SDS011;10326;53.660;10.200;2023-06-14T07:15:53;4.03;;;2.20;;
20336;SDS011;10326;53.660;10.200;2023-06-14T07:18:26;2.53;;;2.10;;
20336;SDS011;10326;53.660;10.200;2023-06-14T07:20:55;3.28;;;2.70;;
20336;SDS011;10326;53.660;10.200;2023-06-14T07:23:22;2.63;;;2.10;;
20336;SDS011;10326;53.660;10.200;2023-06-14T07:25:50;2.75;;;2.30;;
20336;SDS011;10326;53.660;10.200;2023-06-14T07:28:17;2.88;;;2.25;;
20336;SDS011;10326;53.660;10.200;2023-06-14T07:30:44;2.78;;;2.35;;
20336;SDS011;10326;53.660;10.200;2023-06-14T07:33:11;3.00;;;2.17;;
20336;SDS011;10326;53.660;10.200;2023-06-14T07:35:38;2.63;;;2.20;;
20336;SDS011;10326;53.660;10.200;2023-06-14T07:38:07;2.15;;;1.92;;
20336;SDS011;10326;53.660;10.200;2023-06-14T07:40:35;3.05;;;2.67;;
20336;SDS011;10326;53.660;10.200;2023-06-14T07:43:02;5.35;;;2.42;;
20336;SDS011;10326;53.660;10.200;2023-06-14T07:45:29;3.90;;;2.28;;
20336;SDS011;10326;53.660;10.200;2023-06-14T07:47:57;2.80;;;2.60;;
20336;SDS011;10326;53.660;10.200;2023-06-14T07:50:24;2.63;;;2.20;;
20336;SDS011;10326;53.660;10.200;2023-06-14T07:52:51;3.35;;;2.25;;
20336;SDS011;10326;53.660;10.200;2023-06-14T07:55:20;3.83;;;2.42;;
20336;SDS011;10326;53.660;10.200;2023-06-14T07:57:48;3.60;;;2.67;;
20336;SDS011;10326;53.660;10.200;2023-06-14T08:00:16;5.07;;;2.53;;
20336;SDS011;10326;53.660;10.200;2023-06-14T08:02:45;4.35;;;2.40;;
20336;SDS011;10326;53.660;10.200;2023-06-14T08:05:12;3.83;;;2.60;;
20336;SDS011;10326;53.660;10.200;2023-06-14T08:07:40;2.45;;;2.25;;
20336;SDS011;10326;53.660;10.200;2023-06-14T08:10:08;4.30;;;2.75;;
20336;SDS011;10326;53.660;10.200;2023-06-14T08:12:38;3.40;;;2.45;;
20336;SDS011;10326;53.660;10.200;2023-06-14T08:15:05;4.47;;;2.45;;
20336;SDS011;10326;53.660;10.200;2023-06-14T08:17:35;2.70;;;2.50;;
20336;SDS011;10326;53.660;10.200;2023-06-14T08:20:03;4.43;;;2.30;;
20336;SDS011;10326;53.660;10.200;2023-06-14T08:22:32;5.03;;;2.38;;
20336;SDS011;10326;53.660;10.200;2023-06-14T08:25:00;4.50;;;2.42;;
20336;SDS011;10326;53.660;10.200;2023-06-14T08:27:28;3.95;;;2.55;;
20336;SDS011;10326;53.660;10.200;2023-06-14T08:29:57;3.75;;;2.60;;
20336;SDS011;10326;53.660;10.200;2023-06-14T08:32:24;4.85;;;2.70;;
20336;SDS011;10326;53.660;10.200;2023-06-14T08:34:52;4.18;;;2.63;;
20336;SDS011;10326;53.660;10.200;2023-06-14T08:37:19;5.30;;;2.47;;
20336;SDS011;10326;53.660;10.200;2023-06-14T08:39:48;8.02;;;2.90;;
20336;SDS011;10326;53.660;10.200;2023-06-14T08:42:15;3.13;;;2.80;;
20336;SDS011;10326;53.660;10.200;2023-06-14T08:44:46;2.90;;;2.70;;
20336;SDS011;10326;53.660;10.200;2023-06-14T08:47:16;3.90;;;2.50;;
20336;SDS011;10326;53.660;10.200;2023-06-14T08:49:46;5.18;;;2.60;;
20336;SDS011;10326;53.660;10.200;2023-06-14T08:52:15;3.80;;;2.75;;
20336;SDS011;10326;53.660;10.200;2023-06-14T08:54:50;3.15;;;2.40;;
20336;SDS011;10326;53.660;10.200;2023-06-14T08:57:17;3.85;;;2.70;;
20336;SDS011;10326;53.660;10.200;2023-06-14T08:59:59;6.82;;;2.97;;
20336;SDS011;10326;53.660;10.200;2023-06-14T09:02:36;5.38;;;2.90;;
20336;SDS011;10326;53.660;10.200;2023-06-14T09:05:12;3.72;;;2.70;;
20336;SDS011;10326;53.660;10.200;2023-06-14T09:10:15;3.20;;;2.90;;
20336;SDS011;10326;53.660;10.200;2023-06-14T09:12:45;3.03;;;2.35;;
20336;SDS011;10326;53.660;10.200;2023-06-14T09:15:13;3.20;;;2.60;;
20336;SDS011;10326;53.660;10.200;2023-06-14T09:17:54;4.35;;;2.70;;
20336;SDS011;10326;53.660;10.200;2023-06-14T09:20:23;3.40;;;3.03;;
20336;SDS011;10326;53.660;10.200;2023-06-14T09:22:57;4.03;;;2.72;;
20336;SDS011;10326;53.660;10.200;2023-06-14T09:25:25;3.63;;;2.60;;
20336;SDS011;10326;53.660;10.200;2023-06-14T09:27:53;2.83;;;2.60;;
20336;SDS011;10326;53.660;10.200;2023-06-14T09:30:21;3.83;;;2.50;;
20336;SDS011;10326;53.660;10.200;2023-06-14T09:32:49;2.72;;;2.53;;
20336;SDS011;10326;53.660;10.200;2023-06-14T09:35:19;3.30;;;2.60;;
20336;SDS011;10326;53.660;10.200;2023-06-14T09:38:01;3.00;;;2.60;;
20336;SDS011;10326;53.660;10.200;2023-06-14T09:40:29;3.83;;;3.00;;
20336;SDS011;10326;53.660;10.200;2023-06-14T09:43:05;3.33;;;2.70;;
20336;SDS011;10326;53.660;10.200;2023-06-14T09:45:38;3.58;;;2.70;;
20336;SDS011;10326;53.660;10.200;2023-06-14T09:48:06;3.13;;;2.65;;
20336;SDS011;10326;53.660;10.200;2023-06-14T09:50:37;5.82;;;3.45;;
20336;SDS011;10326;53.660;10.200;2023-06-14T09:53:06;3.33;;;3.08;;
20336;SDS011;10326;53.660;10.200;2023-06-14T09:55:45;3.90;;;2.75;;
20336;SDS011;10326;53.660;10.200;2023-06-14T09:58:16;2.70;;;2.50;;
20336;SDS011;10326;53.660;10.200;2023-06-14T10:00:44;6.60;;;3.10;;
20336;SDS011;10326;53.660;10.200;2023-06-14T10:03:14;3.13;;;2.83;;
20336;SDS011;10326;53.660;10.200;2023-06-14T10:05:50;3.85;;;3.10;;
20336;SDS011;10326;53.660;10.200;2023-06-14T10:08:19;3.75;;;2.63;;
20336;SDS011;10326;53.660;10.200;2023-06-14T10:10:52;3.25;;;2.90;;
20336;SDS011;10326;53.660;10.200;2023-06-14T10:13:25;7.93;;;3.10;;
20336;SDS011;10326;53.660;10.200;2023-06-14T10:15:55;3.83;;;3.25;;
20336;SDS011;10326;53.660;10.200;2023-06-14T10:18:35;3.13;;;2.63;;
20336;SDS011;10326;53.660;10.200;2023-06-14T10:21:18;5.10;;;2.90;;
20336;SDS011;10326;53.660;10.200;2023-06-14T10:23:54;3.88;;;2.70;;
20336;SDS011;10326;53.660;10.200;2023-06-14T10:26:30;2.80;;;2.60;;
20336;SDS011;10326;53.660;10.200;2023-06-14T10:28:58;4.03;;;2.75;;
20336;SDS011;10326;53.660;10.200;2023-06-14T10:34:20;7.80;;;3.30;;
20336;SDS011;10326;53.660;10.200;2023-06-14T10:39:43;4.03;;;3.13;;
20336;SDS011;10326;53.660;10.200;2023-06-14T10:42:20;3.60;;;2.58;;
20336;SDS011;10326;53.660;10.200;2023-06-14T10:44:50;4.75;;;2.80;;
20336;SDS011;10326;53.660;10.200;2023-06-14T10:47:30;2.97;;;2.40;;
20336;SDS011;10326;53.660;10.200;2023-06-14T10:50:03;4.75;;;2.75;;
20336;SDS011;10326;53.660;10.200;2023-06-14T10:52:41;5.65;;;2.75;;
20336;SDS011;10326;53.660;10.200;2023-06-14T10:55:10;2.78;;;2.55;;
20336;SDS011;10326;53.660;10.200;2023-06-14T11:00:16;3.88;;;2.60;;
20336;SDS011;10326;53.660;10.200;2023-06-14T11:05:58;3.85;;;2.90;;
20336;SDS011;10326;53.660;10.200;2023-06-14T11:08:38;3.80;;;2.60;;
20336;SDS011;10326;53.660;10.200;2023-06-14T11:11:37;4.18;;;2.72;;
20336;SDS011;10326;53.660;10.200;2023-06-14T11:14:08;4.05;;;2.70;;
20336;SDS011;10326;53.660;10.200;2023-06-14T11:16:36;4.45;;;2.60;;
20336;SDS011;10326;53.660;10.200;2023-06-14T11:19:03;3.78;;;2.67;;
20336;SDS011;10326;53.660;10.200;2023-06-14T11:21:32;2.55;;;2.33;;
20336;SDS011;10326;53.660;10.200;2023-06-14T11:24:01;3.42;;;2.80;;
20336;SDS011;10326;53.660;10.200;2023-06-14T11:26:28;4.45;;;2.85;;
20336;SDS011;10326;53.660;10.200;2023-06-14T11:29:05;3.22;;;2.92;;
20336;SDS011;10326;53.660;10.200;2023-06-14T11:31:33;6.15;;;2.70;;
20336;SDS011;10326;53.660;10.200;2023-06-14T11:34:01;3.30;;;2.83;;
20336;SDS011;10326;53.660;10.200;2023-06-14T11:36:31;3.47;;;2.80;;
20336;SDS011;10326;53.660;10.200;2023-06-14T11:39:02;3.47;;;2.90;;
20336;SDS011;10326;53.660;10.200;2023-06-14T11:41:32;3.55;;;2.85;;
20336;SDS011;10326;53.660;10.200;2023-06-14T11:44:02;2.67;;;2.47;;
20336;SDS011;10326;53.660;10.200;2023-06-14T11:46:31;3.35;;;2.70;;
20336;SDS011;10326;53.660;10.200;2023-06-14T11:48:58;4.38;;;2.38;;
20336;SDS011;10326;53.660;10.200;2023-06-14T11:51:28;3.67;;;2.88;;
20336;SDS011;10326;53.660;10.200;2023-06-14T11:53:55;3.00;;;2.80;;
20336;SDS011;10326;53.660;10.200;2023-06-14T11:56:24;3.08;;;2.88;;
20336;SDS011;10326;53.660;10.200;2023-06-14T11:58:52;3.40;;;2.47;;
20336;SDS011;10326;53.660;10.200;2023-06-14T12:01:21;3.58;;;2.67;;
20336;SDS011;10326;53.660;10.200;2023-06-14T12:03:49;4.43;;;2.90;;
20336;SDS011;10326;53.660;10.200;2023-06-14T12:06:25;4.13;;;3.03;;
20336;SDS011;10326;53.660;10.200;2023-06-14T12:08:55;3.13;;;2.63;;
20336;SDS011;10326;53.660;10.200;2023-06-14T12:11:25;6.00;;;2.80;;
20336;SDS011;10326;53.660;10.200;2023-06-14T12:13:59;2.67;;;2.47;;
20336;SDS011;10326;53.660;10.200;2023-06-14T12:16:30;4.25;;;2.80;;
20336;SDS011;10326;53.660;10.200;2023-06-14T12:19:01;3.28;;;2.25;;
20336;SDS011;10326;53.660;10.200;2023-06-14T12:21:36;4.05;;;2.20;;
20336;SDS011;10326;53.660;10.200;2023-06-14T12:24:05;4.47;;;2.30;;
20336;SDS011;10326;53.660;10.200;2023-06-14T12:26:37;5.05;;;2.90;;
20336;SDS011;10326;53.660;10.200;2023-06-14T12:29:06;3.42;;;2.53;;
20336;SDS011;10326;53.660;10.200;2023-06-14T12:31:33;4.95;;;2.55;;
20336;SDS011;10326;53.660;10.200;2023-06-14T12:34:02;2.75;;;2.15;;
20336;SDS011;10326;53.660;10.200;2023-06-14T12:36:29;4.00;;;2.90;;
20336;SDS011;10326;53.660;10.200;2023-06-14T12:38:57;3.60;;;2.35;;
20336;SDS011;10326;53.660;10.200;2023-06-14T12:41:24;4.13;;;2.65;;
20336;SDS011;10326;53.660;10.200;2023-06-14T12:43:54;2.72;;;2.50;;
20336;SDS011;10326;53.660;10.200;2023-06-14T12:46:23;4.05;;;2.45;;
20336;SDS011;10326;53.660;10.200;2023-06-14T12:48:50;3.88;;;2.35;;
20336;SDS011;10326;53.660;10.200;2023-06-14T12:51:18;4.68;;;2.40;;
20336;SDS011;10326;53.660;10.200;2023-06-14T12:53:45;3.92;;;2.22;;
20336;SDS011;10326;53.660;10.200;2023-06-14T12:56:12;3.80;;;2.28;;
20336;SDS011;10326;53.660;10.200;2023-06-14T12:58:43;2.70;;;2.20;;
20336;SDS011;10326;53.660;10.200;2023-06-14T13:01:11;3.10;;;2.33;;
20336;SDS011;10326;53.660;10.200;2023-06-14T13:03:38;5.75;;;2.30;;
20336;SDS011;10326;53.660;10.200;2023-06-14T13:06:06;3.15;;;2.22;;
20336;SDS011;10326;53.660;10.200;2023-06-14T13:08:33;2.53;;;2.20;;
20336;SDS011;10326;53.660;10.200;2023-06-14T13:11:01;3.78;;;2.30;;
20336;SDS011;10326;53.660;10.200;2023-06-14T13:13:29;5.38;;;2.70;;
20336;SDS011;10326;53.660;10.200;2023-06-14T13:15:59;3.63;;;2.13;;
20336;SDS011;10326;53.660;10.200;2023-06-14T13:18:28;7.53;;;2.60;;
20336;SDS011;10326;53.660;10.200;2023-06-14T13:20:55;2.80;;;2.30;;
20336;SDS011;10326;53.660;10.200;2023-06-14T13:23:22;4.10;;;2.25;;
20336;SDS011;10326;53.660;10.200;2023-06-14T13:25:50;4.35;;;2.28;;
20336;SDS011;10326;53.660;10.200;2023-06-14T13:28:19;3.97;;;2.53;;
20336;SDS011;10326;53.660;10.200;2023-06-14T13:30:46;3.05;;;2.50;;
20336;SDS011;10326;53.660;10.200;2023-06-14T13:33:13;6.32;;;2.28;;
20336;SDS011;10326;53.660;10.200;2023-06-14T13:35:42;2.90;;;2.20;;
20336;SDS011;10326;53.660;10.200;2023-06-14T13:38:10;3.78;;;2.22;;
20336;SDS011;10326;53.660;10.200;2023-06-14T13:40:37;3.17;;;2.22;;
20336;SDS011;10326;53.660;10.200;2023-06-14T13:43:04;2.60;;;2.28;;
20336;SDS011;10326;53.660;10.200;2023-06-14T13:45:31;6.13;;;2.20;;
20336;SDS011;10326;53.660;10.200;2023-06-14T13:50:47;3.10;;;2.63;;
20336;SDS011;10326;53.660;10.200;2023-06-14T13:53:15;2.47;;;2.28;;
20336;SDS011;10326;53.660;10.200;2023-06-14T13:55:42;2.47;;;2.25;;
20336;SDS011;10326;53.660;10.200;2023-06-14T13:58:11;3.92;;;2.30;;
20336;SDS011;10326;53.660;10.200;2023-06-14T14:00:39;3.10;;;2.20;;
20336;SDS011;10326;53.660;10.200;2023-06-14T14:03:07;2.88;;;2.15;;
20336;SDS011;10326;53.660;10.200;2023-06-14T14:05:49;6.47;;;2.83;;
20336;SDS011;10326;53.660;10.200;2023-06-14T14:08:19;2.75;;;2.28;;
20336;SDS011;10326;53.660;10.200;2023-06-14T14:10:46;3.47;;;2.08;;
20336;SDS011;10326;53.660;10.200;2023-06-14T14:13:13;2.53;;;2.20;;
20336;SDS011;10326;53.660;10.200;2023-06-14T14:15:40;5.85;;;2.78;;
20336;SDS011;10326;53.660;10.200;2023-06-14T14:18:08;3.90;;;2.30;;
20336;SDS011;10326;53.660;10.200;2023-06-14T14:20:37;3.28;;;2.15;;
20336;SDS011;10326;53.660;10.200;2023-06-14T14:23:05;3.75;;;2.40;;
20336;SDS011;10326;53.660;10.200;2023-06-14T14:25:33;6.13;;;2.20;;
20336;SDS011;10326;53.660;10.200;2023-06-14T14:28:00;2.88;;;2.20;;
20336;SDS011;10326;53.660;10.200;2023-06-14T14:30:28;3.38;;;2.45;;
20336;SDS011;10326;53.660;10.200;2023-06-14T14:32:55;2.60;;;2.28;;
20336;SDS011;10326;53.660;10.200;2023-06-14T14:35:26;4.50;;;2.30;;
20336;SDS011;10326;53.660;10.200;2023-06-14T14:37:55;2.22;;;2.03;;
20336;SDS011;10326;53.660;10.200;2023-06-14T14:40:24;6.82;;;2.20;;
20336;SDS011;10326;53.660;10.200;2023-06-14T14:42:52;3.53;;;2.45;;
20336;SDS011;10326;53.660;10.200;2023-06-14T14:45:19;3.25;;;2.20;;
20336;SDS011;10326;53.660;10.200;2023-06-14T14:47:47;3.88;;;2.20;;
20336;SDS011;10326;53.660;10.200;2023-06-14T14:50:14;2.63;;;1.95;;
20336;SDS011;10326;53.660;10.200;2023-06-14T14:52:42;3.88;;;2.00;;
20336;SDS011;10326;53.660;10.200;2023-06-14T14:55:09;3.97;;;2.30;;
20336;SDS011;10326;53.660;10.200;2023-06-14T14:57:37;3.50;;;2.28;;
20336;SDS011;10326;53.660;10.200;2023-06-14T15:00:05;3.22;;;2.38;;
20336;SDS011;10326;53.660;10.200;2023-06-14T15:02:34;2.60;;;2.25;;